Baroda, MI (49101)

4:43 AM EST on December 06, 2016 (GMT -0500)
Village of Baroda | | Change Station

Elev 646 ft 41.96 °N, 86.48 °W | Updated 1 second ago

Clear
Clear
32.5 °F
Feels Like 32 °F
N
2.0
Wind Variable Wind from ESE
Gusts 4.0 mph

Today
High -- | Low -- °F
--% Chance of Precip.
Yesterday
High -- | Low -- °F
Precip. -- in
Pressure 29.91 in
Visibility 4.0 miles
Clouds Clear
Windchill 32 °F
Dew Point 30 °F
Humidity 91%
Rainfall 0.01 in
Snow Depth Not available.
7:59 AM 5:14 PM
Waxing Crescent, 40% visible
METAR KBEH 060853Z AUTO 11006KT 4SM BR CLR M01/M02 A2989 RMK AO2 SLP129 T10061022 56021
Pressure 29.91 in
Visibility 4.0 miles
Clouds Clear
Windchill 32 °F
Dew Point 30 °F
Humidity 91%
Rainfall 0.01 in
Snow Depth Not available.
7:59 AM 5:14 PM
Waxing Crescent, 40% visible
METAR KBEH 060853Z AUTO 11006KT 4SM BR CLR M01/M02 A2989 RMK AO2 SLP129 T10061022 56021

10-Day Weather Forecast

Almanac

Astronomy

Dec. 06, 2016 Rise Set
Actual Time
Civil Twilight
Nautical Twilight
Astronomical Twilight
Moon
Length of Visible Light
Length of Day
Tomorrow will be .
, % of the Moon is Illuminated

Today's Extremes

State Highs State Lows

Community

WunderPhotos

Upload Photos

1,955,935 photos uploaded!

WunderBlog® & News

Nearby

Air Quality

  Air Quality AQ Index Pollutant
Not available.

Snow Depth

Station Depth Elevation

Earthquake Activity

City Distance Mag. Time & Date
Minimum magnitude displayed is 2.5.

Coastal Water Temperatures

Place Temperature

Stations

Nearby Weather Stations

Station Location Temp. Windchill Dew Point Humidity Wind Precip. Elev Updated Type
                   

Watches & Warnings

There are currently no watches in effect.